M I D A S
Marine Information and Data Acquisition System
Tripno 1010 of the Zeeleeuw from 2005-01-17 08:11:22 to 2005-01-17 12:48:56
Back to CruiseResearch ActivitiesStationsMapUnderway DataData graphs

EquipmentUnitsComment
TimeDGPSUTC
LatitudeDGPSDM.mWGS84
LongitudeDGPSDM.mWGS84
HeadingGyrodeg 
SOGDGPSknotsSpeed over ground
COGDGPSdegCourse over ground
DepthEcho soundermeters200 kHz
Missing or incorrect values are displayed as -999
Navigation data collected by the RV Zeeleeuw from 2005-01-17 08:11:22 to 2005-01-17 12:48:56
Time Latitude Longitude Heading SOG COG Depth
2005-01-17 08:12:25 51°13.596 2°56.102 126.9   146 8.7
2005-01-17 08:13:26 51°13.595 2°56.099 114.7 0.6 288 8.7
2005-01-17 08:14:26 51°13.614 2°56.035 115.7 3.5 294 -999
2005-01-17 08:15:26 51°13.642 2°55.934 118.7 4.8 295 -999
2005-01-17 08:16:26 51°13.678 2°55.812 115.9 5 294 -999
2005-01-17 08:17:25 51°13.696 2°55.744 81.2 0.5 358 14.9
2005-01-17 08:18:26 51°13.711 2°55.756 25.5 0.4 239 15
2005-01-17 08:19:26 51°13.72 2°55.745 348.5 2.2 340 13.4
2005-01-17 08:20:24 51°13.792 2°55.673 331.6 7 327 11.4
2005-01-17 08:21:24 51°13.913 2°55.572 339.2 8.9 335 11.6
2005-01-17 08:22:26 51°14.054 2°55.466 340.7 9.2 336 11
2005-01-17 08:23:26 51°14.208 2°55.338 331.1 10.8 325 11.6
2005-01-17 08:24:26 51°14.337 2°55.115 312.1 11.9 307 11.3
2005-01-17 08:25:25 51°14.477 2°54.891 324.5 12.2 320 11.3
2005-01-17 08:26:26 51°14.643 2°54.69 328.2 12.3 324 10.6
2005-01-17 08:27:26 51°14.811 2°54.507 329.5 12.2 326 10.5
2005-01-17 08:28:26 51°14.962 2°54.345 325.6 8.8 324 9.7
2005-01-17 08:29:25 51°15.059 2°54.246 330.2 6.2 329 9.7
2005-01-17 08:30:25 51°15.141 2°54.173 330.8 5.2 330 10.1
2005-01-17 08:31:26 51°15.212 2°54.1 325.3 4.9 325 10.3
2005-01-17 08:32:24 51°15.275 2°54.036 324.5 4.5 325 10.5
2005-01-17 08:33:26 51°15.382 2°53.925 330.1 10.7 327 10.6
2005-01-17 08:34:26 51°15.562 2°53.726 329.6 13.9 326 11.4
2005-01-17 08:35:25 51°15.763 2°53.547 335.8 14.1 331 12.1
2005-01-17 08:36:26 51°15.976 2°53.372 336.7 14.2 332 12.5
2005-01-17 08:37:26 51°16.187 2°53.203 336.4 14.1 333 13
2005-01-17 08:38:26 51°16.398 2°53.037 336.9 14 333 13.2
2005-01-17 08:39:26 51°16.608 2°52.873 337.3 14.1 334 12.4
2005-01-17 08:40:26 51°16.823 2°52.722 340 13.8 337 10.4
2005-01-17 08:41:25 51°17.035 2°52.576 339.8 14.3 336 10.4
2005-01-17 08:42:26 51°17.256 2°52.424 341.1 14.3 337 10.8
2005-01-17 08:43:26 51°17.475 2°52.276 339.2 14.2 336 11.1
2005-01-17 08:44:26 51°17.661 2°52.051 316.4 14.1 313 11.1
2005-01-17 08:45:26 51°17.815 2°51.769 313.5 14.1 311 10.8
2005-01-17 08:46:26 51°17.969 2°51.483 310.2 14.1 308 11.1
2005-01-17 08:47:26 51°18.089 2°51.159 300.7 14.1 299 12.9
2005-01-17 08:48:24 51°18.201 2°50.842 301 14.1 299 13.6
2005-01-17 08:49:26 51°18.32 2°50.509 301.5 14 300 14.6
2005-01-17 08:50:26 51°18.437 2°50.186 301.8 14 301 14.9
2005-01-17 08:51:26 51°18.551 2°49.862 300.4 14 299 13.9
2005-01-17 08:52:26 51°18.663 2°49.537 301.4 13.9 299 11.6
2005-01-17 08:53:26 51°18.776 2°49.211 301.3 14.2 300 11.7
2005-01-17 08:54:25 51°18.889 2°48.887 300.9 14.2 298 12.7
2005-01-17 08:55:26 51°19.005 2°48.552 300.3 14.1 298 15
2005-01-17 08:56:26 51°19.119 2°48.225 301.2 14.1 300 17.8
2005-01-17 08:57:26 51°19.234 2°47.9 302.3 13.9 301 20.2
2005-01-17 08:58:26 51°19.348 2°47.579 301.2 13.9 299 22.1
2005-01-17 08:59:25 51°19.46 2°47.261 301.5 14 300 22.2
2005-01-17 09:00:24 51°19.572 2°46.944 300.3 13.8 298 22.1
2005-01-17 09:01:26 51°19.685 2°46.608 298.7 13.9 297 20.3
2005-01-17 09:02:26 51°19.787 2°46.275 298.1 13.9 296 17.2
2005-01-17 09:03:26 51°19.9 2°46.008 305.2 9.9 305 14.9
2005-01-17 09:04:26 51°19.909 2°45.852 243 4.5 247 15.3
2005-01-17 09:05:24 51°19.889 2°45.791 223.7 0.8 276 15.3
2005-01-17 09:06:26 51°19.899 2°45.782 224.2 0.8 348 15.5
2005-01-17 09:07:25 51°19.915 2°45.779 240.2 1.1 342 15.8
2005-01-17 09:08:26 51°19.93 2°45.763 249.4 1.1 335 15.9
2005-01-17 09:09:26 51°19.947 2°45.745 259.8 1.3 338 15.4
2005-01-17 09:10:26 51°19.966 2°45.719 263.7 2.5 286 13.6
2005-01-17 09:11:26 51°19.939 2°45.668 194.8 3 185 14.4
2005-01-17 09:12:26 51°19.912 2°45.743 99.5 4.4 83 15.2
2005-01-17 09:13:26 51°19.93 2°45.803 108.2 1 31 14.8
2005-01-17 09:14:26 51°19.944 2°45.816 121.2 1 40 14.8
2005-01-17 09:15:26 51°19.957 2°45.834 128.5 0.9 39 15
2005-01-17 09:16:26 51°19.968 2°45.852 133.7 1.1 45 15.2
2005-01-17 09:17:26 51°19.98 2°45.869 135.5 0.9 40 14.6
2005-01-17 09:18:26 51°19.993 2°45.884 135 0.9 42 14.8
2005-01-17 09:19:26 51°20.005 2°45.902 134.1 1 51 14.5
2005-01-17 09:20:26 51°19.995 2°45.932 167.5 1.9 148 11.5
2005-01-17 09:21:26 51°19.985 2°45.944 178.6 0.4 81 13.3
2005-01-17 09:22:26 51°19.995 2°45.957 157.5 1 29 14.9
2005-01-17 09:23:26 51°20.011 2°45.969 128.4 1 30 15.2
2005-01-17 09:24:26 51°20.027 2°45.985 117 1.1 35 14.9
2005-01-17 09:25:26 51°20.041 2°46.002 120.8 1 37 14.5
2005-01-17 09:26:26 51°20.018 2°46.061 150.8 5.3 142 14.6
2005-01-17 09:27:26 51°19.926 2°46.029 216.1 7.2 216 14.2
2005-01-17 09:28:26 51°19.786 2°45.841 219.8 12.8 218 13.1
2005-01-17 09:29:26 51°19.623 2°45.612 221.9 13.1 220 11.4
2005-01-17 09:30:26 51°19.456 2°45.389 221.9 13.2 220 11.7
2005-01-17 09:31:26 51°19.29 2°45.164 221.9 13.3 221 11.5
2005-01-17 09:32:26 51°19.125 2°44.936 222.7 13 221 11
2005-01-17 09:33:26 51°18.961 2°44.704 222.1 13.1 221 10.4
2005-01-17 09:34:26 51°18.799 2°44.469 223.6 12.6 223 12.2
2005-01-17 09:35:26 51°18.684 2°44.302 223 7.6 223 12.8
2005-01-17 09:36:24 51°18.632 2°44.193 229.7 4.1 235 13.4
2005-01-17 09:37:26 51°18.612 2°44.148 219.5 0.6 334 13.5
2005-01-17 09:38:26 51°18.63 2°44.148 233.8 1.1 2 13.7
2005-01-17 09:39:26 51°18.647 2°44.135 242 1.3 309 14.2
2005-01-17 09:40:26 51°18.65 2°44.103 220.5 0.8 297 14.8
2005-01-17 09:41:26 51°18.67 2°44.102 225.7 1.4 5 15.6
2005-01-17 09:42:26 51°18.694 2°44.112 248.1 1.5 19 16.5
2005-01-17 09:43:26 51°18.713 2°44.112 266.7 1.5 306 17.3
2005-01-17 09:44:26 51°18.699 2°44.055 209.7 2.7 214 18.6
2005-01-17 09:45:26 51°18.648 2°44.087 155.3 4.3 150 15.2
2005-01-17 09:46:26 51°18.594 2°44.141 150.8 2.5 136 13
2005-01-17 09:47:26 51°18.593 2°44.155 165.1 0.6 47 13
2005-01-17 09:48:26 51°18.604 2°44.165 149.6 0.9 28 12.8
2005-01-17 09:49:26 51°18.621 2°44.172 127 1 17 13
2005-01-17 09:50:26 51°18.639 2°44.178 113 1.1 10 13.6
2005-01-17 09:51:26 51°18.634 2°44.232 131.5 5.3 125 12.7
2005-01-17 09:52:26 51°18.515 2°44.234 206.7 8.9 208 12.1
2005-01-17 09:53:26 51°18.364 2°44.038 218.1 12.8 219 9.9
2005-01-17 09:54:26 51°18.193 2°43.822 218.2 13.3 219 11
2005-01-17 09:55:26 51°18.014 2°43.625 212.4 13.1 213 11.1
2005-01-17 09:56:26 51°17.827 2°43.441 209.9 13.2 210 11.1
2005-01-17 09:57:26 51°17.632 2°43.28 206.8 13.2 207 10.9
2005-01-17 09:58:25 51°17.44 2°43.122 206.5 13.3 207 11.9
2005-01-17 09:59:26 51°17.272 2°42.995 199.2 7.6 201 10.7
2005-01-17 10:00:25 51°17.217 2°42.986 159.5 0.6 156 11
2005-01-17 10:01:26 51°17.224 2°42.994 126.2 0.6 36 11.1
2005-01-17 10:02:26 51°17.233 2°43.008 120.6 0.8 46 11.3
2005-01-17 10:03:25 51°17.24 2°43.022 130 0.6 46 11.8
2005-01-17 10:04:26 51°17.247 2°43.034 134.8 0.7 52 11.7
2005-01-17 10:05:33 51°17.256 2°43.048 136.9 0.7 33 10.9
2005-01-17 10:06:33 51°17.268 2°43.054 135.5 1 18 11.5
2005-01-17 10:07:34 51°17.281 2°43.06 128.4 0.8 18 11.9
2005-01-17 10:08:33 51°17.294 2°43.065 125.6 0.8 21 11.7
2005-01-17 10:09:33 51°17.307 2°43.072 127.7 0.8 14 11.5
2005-01-17 10:10:33 51°17.321 2°43.077 125.9 0.8 12 10.6
2005-01-17 10:11:33 51°17.328 2°43.095 128.8 1.5 102 11.9
2005-01-17 10:12:33 51°17.285 2°43.123 178.8 3.6 178 11.4
2005-01-17 10:13:33 51°17.164 2°43.13 178.3 10.5 178 12.7
2005-01-17 10:14:33 51°16.96 2°43.084 195.3 13 197 13.4
2005-01-17 10:15:33 51°16.751 2°42.993 193.8 13.1 196 10.8
2005-01-17 10:16:33 51°16.539 2°42.902 195 13.3 195 11.5
2005-01-17 10:17:33 51°16.328 2°42.815 194.1 13 195 11.2
2005-01-17 10:18:33 51°16.124 2°42.728 194.4 10.8 193 11.2
2005-01-17 10:19:33 51°16.003 2°42.682 186.5 5.5 186 11.4
2005-01-17 10:20:33 51°15.968 2°42.682 191.9 0.1 138 10.7
2005-01-17 10:21:33 51°15.973 2°42.686 183.6 0.7 23 10.9
2005-01-17 10:22:33 51°15.987 2°42.689 153.2 1.1 6 11.5
2005-01-17 10:23:32 51°16.001 2°42.689 124.6 0.8 11 11.4
2005-01-17 10:24:33 51°16.016 2°42.692 109.8 0.9 9 11.3
2005-01-17 10:25:32 51°16.026 2°42.698 108.3 0.8 16 11
2005-01-17 10:26:33 51°16.038 2°42.707 116.1 0.6 49 9.7
2005-01-17 10:27:33 51°16.046 2°42.717 121 0.7 32 11
2005-01-17 10:28:32 51°16.053 2°42.727 127.7 0.6 45 11.6
2005-01-17 10:29:32 51°16.059 2°42.736 132.4 0.6 45 11.8
2005-01-17 10:30:33 51°16.063 2°42.748 135.5 1.2 107 11.9
2005-01-17 10:31:32 51°15.969 2°42.812 168.4 9.9 168 11.2
2005-01-17 10:32:33 51°15.763 2°42.799 195.7 13.2 199 11.4
2005-01-17 10:33:32 51°15.568 2°42.644 214.5 13.4 215 10.3
2005-01-17 10:34:33 51°15.398 2°42.405 224 13.4 224 10.6
2005-01-17 10:35:33 51°15.235 2°42.153 224.3 13.7 224 11
2005-01-17 10:36:33 51°15.071 2°41.895 224.5 13.8 224 12.3
2005-01-17 10:37:33 51°14.947 2°41.596 249.1 13.8 249 12.5
2005-01-17 10:38:33 51°14.914 2°41.231 267 14 265 12.2
2005-01-17 10:39:33 51°14.893 2°40.862 266.2 13.9 265 11.8
2005-01-17 10:40:33 51°14.87 2°40.494 265.2 14 264 12.1
2005-01-17 10:41:33 51°14.844 2°40.125 265.3 13.9 264 12.6
2005-01-17 10:42:32 51°14.818 2°39.763 265.4 14 264 14.5
2005-01-17 10:43:33 51°14.788 2°39.39 264.9 13.9 262 14.6
2005-01-17 10:44:32 51°14.747 2°39.032 259.5 14 257 15.7
2005-01-17 10:45:33 51°14.694 2°38.664 259.2 14 257 16.1
2005-01-17 10:46:32 51°14.643 2°38.306 259.1 14.1 257 15.5
2005-01-17 10:47:32 51°14.589 2°37.944 259.4 14.1 257 14
2005-01-17 10:48:32 51°14.537 2°37.578 259 14.1 257 11.6
2005-01-17 10:49:32 51°14.485 2°37.211 259.8 14.1 258 9.7
2005-01-17 10:50:33 51°14.479 2°36.839 291.7 13.9 293 9.6
2005-01-17 10:51:33 51°14.663 2°36.636 339.2 14.1 332 8.8
2005-01-17 10:52:33 51°14.88 2°36.471 343.7 14.4 337 14.3
2005-01-17 10:53:32 51°15.098 2°36.338 347.7 14.1 345 14.7
2005-01-17 10:54:33 51°15.331 2°36.351 15.7 14 10 15.1
2005-01-17 10:55:33 51°15.561 2°36.402 17.1 13.9 10 16.7
2005-01-17 10:56:33 51°15.785 2°36.461 13.5 13.7 8 21.5
2005-01-17 10:57:33 51°16.009 2°36.535 20.5 13.7 17 25.5
2005-01-17 10:58:33 51°16.233 2°36.618 18.7 14 14 27.3
2005-01-17 10:59:33 51°16.434 2°36.699 17.4 9.9 12 26.2
2005-01-17 11:00:33 51°16.56 2°36.736 17.6 6 10 25.9
2005-01-17 11:01:33 51°16.614 2°36.756 47.5 1.5 29 25.9
2005-01-17 11:02:33 51°16.624 2°36.759 91 0.5 17 25.9
2005-01-17 11:03:33 51°16.629 2°36.764 108.8 0.3 38 25.9
2005-01-17 11:04:32 51°16.633 2°36.768 121.1 0.3 32 25.8
2005-01-17 11:05:33 51°16.637 2°36.772 126.9 0.3 25 25.8
2005-01-17 11:06:33 51°16.639 2°36.777 133.5 0.5 30 25.9
2005-01-17 11:07:33 51°16.643 2°36.78 134 0.3 9 25.9
2005-01-17 11:08:33 51°16.649 2°36.782 127.7 0.4 7 26.1
2005-01-17 11:09:33 51°16.655 2°36.784 120.4 0.4 23 26
2005-01-17 11:10:33 51°16.661 2°36.788 118.5 0.3 29 26.1
2005-01-17 11:11:33 51°16.664 2°36.793 126.5 0.2 87 25.9
2005-01-17 11:12:33 51°16.665 2°36.797 133 0.2 105 25.9
2005-01-17 11:13:33 51°16.666 2°36.799 135.8   328 26
2005-01-17 11:14:32 51°16.668 2°36.8 130.2 0.3 9 26
2005-01-17 11:15:33 51°16.672 2°36.802 126.9 0.3 36 25.9
2005-01-17 11:16:33 51°16.675 2°36.806 124.5 0.2 30 25.7
2005-01-17 11:17:33 51°16.677 2°36.809 125.5 0.1 172 25.8
2005-01-17 11:18:33 51°16.679 2°36.812 128.9 0.2 40 25.7
2005-01-17 11:19:33 51°16.681 2°36.814 126.4 0.1 51 25.7
2005-01-17 11:20:33 51°16.683 2°36.814 127.1 0.2 355 25.7
2005-01-17 11:21:33 51°16.687 2°36.815 123.9 0.3 5 25.6
2005-01-17 11:22:33 51°16.689 2°36.818 125 0.1 51 25.6
2005-01-17 11:23:33 51°16.689 2°36.821 130 0.1 90 25.7
2005-01-17 11:24:33 51°16.69 2°36.824 131.3 0.2 65 25.6
2005-01-17 11:25:32 51°16.691 2°36.827 132.2 0.2 42 25.4
2005-01-17 11:26:33 51°16.693 2°36.827 130.6 0.1 3 25.4
2005-01-17 11:27:41 51°16.687 2°36.838 133.4 2.2 134 25.5
2005-01-17 11:28:44 51°16.632 2°36.906 146.8 6.1 149 25.7
2005-01-17 11:29:44 51°16.49 2°36.976 170.6 11.3 171 26.1
2005-01-17 11:30:44 51°16.274 2°36.929 198.7 13.7 198 25.5
2005-01-17 11:31:44 51°16.06 2°36.801 202.1 13.7 201 22.9
2005-01-17 11:32:44 51°15.846 2°36.669 202.5 13.7 202 19.3
2005-01-17 11:33:44 51°15.637 2°36.535 202.8 13.5 201 16.2
2005-01-17 11:34:44 51°15.428 2°36.393 203.6 13.7 203 14.9
2005-01-17 11:35:41 51°15.225 2°36.28 197.6 13.6 197 14.6
2005-01-17 11:36:43 51°15.002 2°36.165 198.7 13.6 198 15.4
2005-01-17 11:37:44 51°14.784 2°36.051 199.2 13.6 198 15.7
2005-01-17 11:38:40 51°14.582 2°35.952 189.3 13.3 189 13.9
2005-01-17 11:39:44 51°14.358 2°36.033 159.5 12.8 157 11
2005-01-17 11:40:44 51°14.195 2°36.241 138 12.9 136 10.4
2005-01-17 11:41:44 51°14.126 2°36.557 103.7 13.2 100 11.7
2005-01-17 11:42:43 51°14.136 2°36.885 85.6 12.9 82 12.7
2005-01-17 11:43:44 51°14.151 2°37.227 91.4 12.8 87 14.1
2005-01-17 11:44:43 51°14.175 2°37.561 84.9 13.1 81 16.5
2005-01-17 11:45:44 51°14.201 2°37.906 86.1 12.9 82 17.9
2005-01-17 11:46:44 51°14.226 2°38.243 87.8 12.9 85 17.3
2005-01-17 11:47:44 51°14.25 2°38.591 87.4 12.9 84 15.3
2005-01-17 11:48:44 51°14.272 2°38.929 88.8 13 86 12.5
2005-01-17 11:49:44 51°14.298 2°39.268 86.8 13.2 83 12
2005-01-17 11:50:44 51°14.322 2°39.605 87.3 12.9 83 11.8
2005-01-17 11:51:44 51°14.349 2°39.938 87.7 12.8 84 12.1
2005-01-17 11:52:44 51°14.369 2°40.276 89.5 13.1 85 12.3
2005-01-17 11:53:44 51°14.394 2°40.619 86.2 13.2 81 12.1
2005-01-17 11:54:44 51°14.421 2°40.956 87.3 12.7 84 12.9
2005-01-17 11:55:44 51°14.44 2°41.293 87.8 13.1 85 12.8
2005-01-17 11:56:44 51°14.458 2°41.636 86 13.3 83 12.8
2005-01-17 11:57:44 51°14.476 2°41.973 87.7 12.7 85 14.3
2005-01-17 11:58:44 51°14.5 2°42.313 85.1 13.1 83 15.9
2005-01-17 11:59:44 51°14.515 2°42.653 86.5 12.8 85 16.5
2005-01-17 12:00:48 51°14.535 2°43.016 86.4 12.8 84 16.6
2005-01-17 12:01:54 51°14.558 2°43.386 87.9 12.9 86 16.1
2005-01-17 12:02:54 51°14.574 2°43.724 89.1 12.6 88 15.5
2005-01-17 12:03:54 51°14.591 2°44.061 86.1 12.5 83 15.2
2005-01-17 12:04:54 51°14.608 2°44.408 89.5 13.4 89 13.8
2005-01-17 12:05:54 51°14.629 2°44.752 83.8 13.1 81 12.7
2005-01-17 12:06:54 51°14.669 2°45.089 82.4 12.8 81 11.3
2005-01-17 12:08:00 51°14.715 2°45.458 80.5 13 77 9.8
2005-01-17 12:09:00 51°14.75 2°45.794 80.8 12.8 79 8.4
2005-01-17 12:10:00 51°14.793 2°46.122 78.3 12.5 76 5.7
2005-01-17 12:10:58 51°14.827 2°46.438 82.8 12.8 79 7.6
2005-01-17 12:12:00 51°14.854 2°46.784 88.3 13 86 8.4
2005-01-17 12:13:00 51°14.881 2°47.132 84.4 13.6 84 10.2
2005-01-17 12:14:00 51°14.911 2°47.481 84.3 13.3 81 11.6
2005-01-17 12:15:02 51°14.945 2°47.836 83.7 13.1 81 11.9
2005-01-17 12:16:02 51°14.98 2°48.177 82.7 13 81 11.8
2005-01-17 12:17:03 51°15.017 2°48.521 83.2 13.1 81 11.6
2005-01-17 12:18:02 51°15.052 2°48.854 82.3 12.8 80 11.5
2005-01-17 12:19:02 51°15.086 2°49.195 82.7 13 81 11.7
2005-01-17 12:20:02 51°15.118 2°49.537 85.9 13 85 11.7
2005-01-17 12:21:02 51°15.147 2°49.877 82.8 13.2 80 11.7
2005-01-17 12:22:02 51°15.179 2°50.216 82.4 12.7 81 11.7
2005-01-17 12:23:02 51°15.215 2°50.555 81.2 13.1 80 11.6
2005-01-17 12:24:02 51°15.249 2°50.896 83.1 13.1 82 11.6
2005-01-17 12:25:02 51°15.277 2°51.238 84.9 13 84 11.1
2005-01-17 12:26:02 51°15.28 2°51.582 96.8 12.8 97 11
2005-01-17 12:27:02 51°15.218 2°51.914 111 13.1 111 10.7
2005-01-17 12:28:02 51°15.142 2°52.151 122.6 7.9 121 10.5
2005-01-17 12:29:02 51°15.084 2°52.287 125.3 5.5 127 10.3
2005-01-17 12:30:02 51°15.036 2°52.394 123.3 4.7 124 10.1
2005-01-17 12:31:02 51°14.996 2°52.494 122.6 4.4 123 10
2005-01-17 12:32:02 51°14.958 2°52.593 121.2 4.4 120 9.7
2005-01-17 12:33:02 51°14.918 2°52.69 124.3 4.4 123 9.3
2005-01-17 12:34:02 51°14.878 2°52.784 122.5 4.3 122 9.1
2005-01-17 12:35:02 51°14.845 2°52.884 116.3 4.3 116 9
2005-01-17 12:36:02 51°14.808 2°52.985 121.9 4.4 122 8.8
2005-01-17 12:37:02 51°14.769 2°53.083 122.4 4.4 122 8.7
2005-01-17 12:38:02 51°14.731 2°53.182 122.6 4.4 123 8.5
2005-01-17 12:39:03 51°14.695 2°53.283 117.1 4.4 114 8.5
2005-01-17 12:40:02 51°14.668 2°53.389 110.3 4.4 108 8.3
2005-01-17 12:41:02 51°14.644 2°53.501 110 4.4 109 8.1
2005-01-17 12:42:02 51°14.618 2°53.592 120.3 3.1 118 8.2
2005-01-17 12:43:02 51°14.593 2°53.67 114 3.8 113 9.1
2005-01-17 12:44:02 51°14.566 2°53.776 112.4 4.6 111 9.3
2005-01-17 12:45:02 51°14.534 2°53.926 107.8 7.2 108 9.2
2005-01-17 12:46:02 51°14.498 2°54.143 105.3 9.4 103 9.4
2005-01-17 12:47:02 51°14.463 2°54.432 101.4 11.8 99 9.8
2005-01-17 12:48:01 51°14.426 2°54.741 105.1 12.1 102 9.8